sensor_id;sensor_type;location;lat;lon;timestamp;P1;durP1;ratioP1;P2;durP2;ratioP2
12271;SDS011;6198;51.446;6.698;2023-04-25T00:00:27;18.07;;;7.13;;
12271;SDS011;6198;51.446;6.698;2023-04-25T00:02:53;12.53;;;6.47;;
12271;SDS011;6198;51.446;6.698;2023-04-25T00:05:21;16.17;;;7.67;;
12271;SDS011;6198;51.446;6.698;2023-04-25T00:07:48;16.20;;;7.67;;
12271;SDS011;6198;51.446;6.698;2023-04-25T00:10:14;15.90;;;6.83;;
12271;SDS011;6198;51.446;6.698;2023-04-25T00:12:40;16.53;;;7.43;;
12271;SDS011;6198;51.446;6.698;2023-04-25T00:15:06;16.53;;;7.53;;
12271;SDS011;6198;51.446;6.698;2023-04-25T00:17:33;15.63;;;7.23;;
12271;SDS011;6198;51.446;6.698;2023-04-25T00:19:59;20.63;;;7.40;;
12271;SDS011;6198;51.446;6.698;2023-04-25T00:22:26;18.70;;;7.40;;
12271;SDS011;6198;51.446;6.698;2023-04-25T00:24:52;18.37;;;7.30;;
12271;SDS011;6198;51.446;6.698;2023-04-25T00:27:18;17.23;;;7.93;;
12271;SDS011;6198;51.446;6.698;2023-04-25T00:29:44;17.27;;;7.77;;
12271;SDS011;6198;51.446;6.698;2023-04-25T00:32:10;21.53;;;7.87;;
12271;SDS011;6198;51.446;6.698;2023-04-25T00:34:36;17.60;;;7.63;;
12271;SDS011;6198;51.446;6.698;2023-04-25T00:37:02;23.07;;;8.53;;
12271;SDS011;6198;51.446;6.698;2023-04-25T00:39:28;16.47;;;8.40;;
12271;SDS011;6198;51.446;6.698;2023-04-25T00:41:54;14.70;;;7.43;;
12271;SDS011;6198;51.446;6.698;2023-04-25T00:44:20;15.50;;;7.50;;
12271;SDS011;6198;51.446;6.698;2023-04-25T00:46:47;20.03;;;8.70;;
12271;SDS011;6198;51.446;6.698;2023-04-25T00:49:14;17.00;;;7.67;;
12271;SDS011;6198;51.446;6.698;2023-04-25T00:51:41;15.93;;;7.77;;
12271;SDS011;6198;51.446;6.698;2023-04-25T00:54:08;13.60;;;7.97;;
12271;SDS011;6198;51.446;6.698;2023-04-25T00:56:35;18.53;;;8.03;;
12271;SDS011;6198;51.446;6.698;2023-04-25T00:59:01;21.80;;;9.00;;
12271;SDS011;6198;51.446;6.698;2023-04-25T01:01:27;17.90;;;8.00;;
12271;SDS011;6198;51.446;6.698;2023-04-25T01:03:53;20.93;;;8.00;;
12271;SDS011;6198;51.446;6.698;2023-04-25T01:06:19;14.93;;;7.30;;
12271;SDS011;6198;51.446;6.698;2023-04-25T01:08:47;22.37;;;8.50;;
12271;SDS011;6198;51.446;6.698;2023-04-25T01:11:13;16.17;;;7.70;;
12271;SDS011;6198;51.446;6.698;2023-04-25T01:13:39;10.17;;;7.00;;
12271;SDS011;6198;51.446;6.698;2023-04-25T01:16:05;16.13;;;6.90;;
12271;SDS011;6198;51.446;6.698;2023-04-25T01:18:31;19.27;;;7.60;;
12271;SDS011;6198;51.446;6.698;2023-04-25T01:21:02;12.57;;;7.17;;
12271;SDS011;6198;51.446;6.698;2023-04-25T01:23:30;12.07;;;7.37;;
12271;SDS011;6198;51.446;6.698;2023-04-25T01:25:58;13.57;;;7.20;;
12271;SDS011;6198;51.446;6.698;2023-04-25T01:28:24;12.77;;;7.47;;
12271;SDS011;6198;51.446;6.698;2023-04-25T01:30:50;15.63;;;7.87;;
12271;SDS011;6198;51.446;6.698;2023-04-25T01:33:17;14.87;;;7.57;;
12271;SDS011;6198;51.446;6.698;2023-04-25T01:35:43;19.60;;;7.50;;
12271;SDS011;6198;51.446;6.698;2023-04-25T01:38:09;12.30;;;7.50;;
12271;SDS011;6198;51.446;6.698;2023-04-25T01:40:37;16.97;;;6.97;;
12271;SDS011;6198;51.446;6.698;2023-04-25T01:43:04;15.70;;;7.40;;
12271;SDS011;6198;51.446;6.698;2023-04-25T01:45:30;15.27;;;7.20;;
12271;SDS011;6198;51.446;6.698;2023-04-25T01:47:56;14.23;;;7.20;;
12271;SDS011;6198;51.446;6.698;2023-04-25T01:50:24;13.40;;;7.97;;
12271;SDS011;6198;51.446;6.698;2023-04-25T01:52:50;12.93;;;7.10;;
12271;SDS011;6198;51.446;6.698;2023-04-25T01:55:16;14.97;;;7.07;;
12271;SDS011;6198;51.446;6.698;2023-04-25T01:57:42;17.67;;;7.60;;
12271;SDS011;6198;51.446;6.698;2023-04-25T02:00:08;14.97;;;8.03;;
12271;SDS011;6198;51.446;6.698;2023-04-25T02:02:35;11.67;;;6.60;;
12271;SDS011;6198;51.446;6.698;2023-04-25T02:05:01;15.27;;;7.80;;
12271;SDS011;6198;51.446;6.698;2023-04-25T02:07:27;14.80;;;6.70;;
12271;SDS011;6198;51.446;6.698;2023-04-25T02:09:52;16.03;;;7.33;;
12271;SDS011;6198;51.446;6.698;2023-04-25T02:12:18;13.60;;;6.77;;
12271;SDS011;6198;51.446;6.698;2023-04-25T02:14:44;15.73;;;7.13;;
12271;SDS011;6198;51.446;6.698;2023-04-25T02:17:10;12.93;;;7.27;;
12271;SDS011;6198;51.446;6.698;2023-04-25T02:19:37;14.57;;;7.73;;
12271;SDS011;6198;51.446;6.698;2023-04-25T02:22:03;20.80;;;7.50;;
12271;SDS011;6198;51.446;6.698;2023-04-25T02:24:29;13.00;;;6.90;;
12271;SDS011;6198;51.446;6.698;2023-04-25T02:26:56;13.13;;;7.20;;
12271;SDS011;6198;51.446;6.698;2023-04-25T02:29:23;18.40;;;8.07;;
12271;SDS011;6198;51.446;6.698;2023-04-25T02:31:49;15.37;;;6.97;;
12271;SDS011;6198;51.446;6.698;2023-04-25T02:34:15;16.10;;;7.03;;
12271;SDS011;6198;51.446;6.698;2023-04-25T02:36:41;14.70;;;6.97;;
12271;SDS011;6198;51.446;6.698;2023-04-25T02:39:06;13.60;;;6.40;;
12271;SDS011;6198;51.446;6.698;2023-04-25T02:41:32;15.43;;;7.23;;
12271;SDS011;6198;51.446;6.698;2023-04-25T02:43:58;16.17;;;6.70;;
12271;SDS011;6198;51.446;6.698;2023-04-25T02:46:24;16.97;;;7.13;;
12271;SDS011;6198;51.446;6.698;2023-04-25T02:48:50;12.57;;;6.50;;
12271;SDS011;6198;51.446;6.698;2023-04-25T02:51:16;14.67;;;6.57;;
12271;SDS011;6198;51.446;6.698;2023-04-25T02:53:42;22.17;;;7.13;;
12271;SDS011;6198;51.446;6.698;2023-04-25T02:56:08;16.87;;;7.07;;
12271;SDS011;6198;51.446;6.698;2023-04-25T02:58:34;16.47;;;6.77;;
12271;SDS011;6198;51.446;6.698;2023-04-25T03:01:00;15.83;;;7.77;;
12271;SDS011;6198;51.446;6.698;2023-04-25T03:03:26;19.47;;;7.43;;
12271;SDS011;6198;51.446;6.698;2023-04-25T03:05:52;13.83;;;6.10;;
12271;SDS011;6198;51.446;6.698;2023-04-25T03:08:18;18.50;;;7.50;;
12271;SDS011;6198;51.446;6.698;2023-04-25T03:10:45;19.37;;;6.93;;
12271;SDS011;6198;51.446;6.698;2023-04-25T03:13:11;17.20;;;6.97;;
12271;SDS011;6198;51.446;6.698;2023-04-25T03:15:38;14.67;;;6.50;;
12271;SDS011;6198;51.446;6.698;2023-04-25T03:18:05;16.30;;;6.97;;
12271;SDS011;6198;51.446;6.698;2023-04-25T03:20:30;18.80;;;7.60;;
12271;SDS011;6198;51.446;6.698;2023-04-25T03:22:56;18.50;;;7.23;;
12271;SDS011;6198;51.446;6.698;2023-04-25T03:25:22;23.00;;;7.93;;
12271;SDS011;6198;51.446;6.698;2023-04-25T03:27:48;17.70;;;6.80;;
12271;SDS011;6198;51.446;6.698;2023-04-25T03:30:14;20.07;;;7.43;;
12271;SDS011;6198;51.446;6.698;2023-04-25T03:32:40;21.90;;;7.97;;
12271;SDS011;6198;51.446;6.698;2023-04-25T03:35:06;19.17;;;7.37;;
12271;SDS011;6198;51.446;6.698;2023-04-25T03:37:32;18.17;;;7.27;;
12271;SDS011;6198;51.446;6.698;2023-04-25T03:39:58;19.10;;;7.53;;
12271;SDS011;6198;51.446;6.698;2023-04-25T03:42:24;16.13;;;7.10;;
12271;SDS011;6198;51.446;6.698;2023-04-25T03:44:51;23.20;;;7.83;;
12271;SDS011;6198;51.446;6.698;2023-04-25T03:47:17;22.97;;;7.50;;
12271;SDS011;6198;51.446;6.698;2023-04-25T03:49:43;23.47;;;8.20;;
12271;SDS011;6198;51.446;6.698;2023-04-25T03:52:09;20.70;;;7.10;;
12271;SDS011;6198;51.446;6.698;2023-04-25T03:54:35;21.30;;;7.63;;
12271;SDS011;6198;51.446;6.698;2023-04-25T03:57:01;22.27;;;7.47;;
12271;SDS011;6198;51.446;6.698;2023-04-25T03:59:27;21.97;;;7.93;;
12271;SDS011;6198;51.446;6.698;2023-04-25T04:01:53;19.60;;;8.53;;
12271;SDS011;6198;51.446;6.698;2023-04-25T04:04:20;18.37;;;7.50;;
12271;SDS011;6198;51.446;6.698;2023-04-25T04:06:46;18.70;;;8.07;;
12271;SDS011;6198;51.446;6.698;2023-04-25T04:09:11;20.00;;;7.30;;
12271;SDS011;6198;51.446;6.698;2023-04-25T04:11:38;17.87;;;7.20;;
12271;SDS011;6198;51.446;6.698;2023-04-25T04:14:07;25.83;;;7.50;;
12271;SDS011;6198;51.446;6.698;2023-04-25T04:16:33;21.40;;;8.47;;
12271;SDS011;6198;51.446;6.698;2023-04-25T04:18:59;26.07;;;7.90;;
12271;SDS011;6198;51.446;6.698;2023-04-25T04:21:25;17.13;;;7.50;;
12271;SDS011;6198;51.446;6.698;2023-04-25T04:23:51;19.17;;;8.03;;
12271;SDS011;6198;51.446;6.698;2023-04-25T04:26:19;27.60;;;8.83;;
12271;SDS011;6198;51.446;6.698;2023-04-25T04:28:48;22.33;;;8.60;;
12271;SDS011;6198;51.446;6.698;2023-04-25T04:31:15;16.80;;;8.10;;
12271;SDS011;6198;51.446;6.698;2023-04-25T04:33:43;21.07;;;8.67;;
12271;SDS011;6198;51.446;6.698;2023-04-25T04:36:09;24.17;;;7.87;;
12271;SDS011;6198;51.446;6.698;2023-04-25T04:38:35;25.00;;;8.27;;
12271;SDS011;6198;51.446;6.698;2023-04-25T04:41:02;18.73;;;8.33;;
12271;SDS011;6198;51.446;6.698;2023-04-25T04:43:28;19.87;;;9.40;;
12271;SDS011;6198;51.446;6.698;2023-04-25T04:45:54;22.97;;;7.97;;
12271;SDS011;6198;51.446;6.698;2023-04-25T04:48:23;22.57;;;8.07;;
12271;SDS011;6198;51.446;6.698;2023-04-25T04:50:49;27.80;;;8.83;;
12271;SDS011;6198;51.446;6.698;2023-04-25T04:53:15;24.23;;;8.50;;
12271;SDS011;6198;51.446;6.698;2023-04-25T04:55:41;26.13;;;9.80;;
12271;SDS011;6198;51.446;6.698;2023-04-25T04:58:07;24.13;;;9.43;;
12271;SDS011;6198;51.446;6.698;2023-04-25T05:00:34;21.43;;;8.57;;
12271;SDS011;6198;51.446;6.698;2023-04-25T05:03:00;24.07;;;8.53;;
12271;SDS011;6198;51.446;6.698;2023-04-25T05:05:26;25.07;;;8.87;;
12271;SDS011;6198;51.446;6.698;2023-04-25T05:07:52;25.97;;;8.80;;
12271;SDS011;6198;51.446;6.698;2023-04-25T05:10:18;22.53;;;8.73;;
12271;SDS011;6198;51.446;6.698;2023-04-25T05:12:45;21.43;;;9.27;;
12271;SDS011;6198;51.446;6.698;2023-04-25T05:15:11;22.43;;;9.07;;
12271;SDS011;6198;51.446;6.698;2023-04-25T05:17:37;19.40;;;8.33;;
12271;SDS011;6198;51.446;6.698;2023-04-25T05:20:04;24.37;;;8.87;;
12271;SDS011;6198;51.446;6.698;2023-04-25T05:22:30;19.07;;;8.13;;
12271;SDS011;6198;51.446;6.698;2023-04-25T05:24:56;22.23;;;9.10;;
12271;SDS011;6198;51.446;6.698;2023-04-25T05:27:23;15.43;;;7.70;;
12271;SDS011;6198;51.446;6.698;2023-04-25T05:29:49;22.00;;;8.20;;
12271;SDS011;6198;51.446;6.698;2023-04-25T05:32:16;19.47;;;7.47;;
12271;SDS011;6198;51.446;6.698;2023-04-25T05:34:41;19.73;;;7.37;;
12271;SDS011;6198;51.446;6.698;2023-04-25T05:37:08;19.03;;;7.43;;
12271;SDS011;6198;51.446;6.698;2023-04-25T05:39:34;15.73;;;7.00;;
12271;SDS011;6198;51.446;6.698;2023-04-25T05:42:00;21.83;;;7.37;;
12271;SDS011;6198;51.446;6.698;2023-04-25T05:44:26;16.27;;;6.97;;
12271;SDS011;6198;51.446;6.698;2023-04-25T05:46:52;25.30;;;7.70;;
12271;SDS011;6198;51.446;6.698;2023-04-25T05:49:18;15.60;;;6.93;;
12271;SDS011;6198;51.446;6.698;2023-04-25T05:51:44;21.97;;;7.90;;
12271;SDS011;6198;51.446;6.698;2023-04-25T05:54:10;15.87;;;7.50;;
12271;SDS011;6198;51.446;6.698;2023-04-25T05:56:36;17.87;;;7.33;;
12271;SDS011;6198;51.446;6.698;2023-04-25T05:59:02;19.67;;;7.10;;
12271;SDS011;6198;51.446;6.698;2023-04-25T06:01:28;19.13;;;7.47;;
12271;SDS011;6198;51.446;6.698;2023-04-25T06:03:54;24.80;;;8.37;;
12271;SDS011;6198;51.446;6.698;2023-04-25T06:06:20;15.60;;;6.90;;
12271;SDS011;6198;51.446;6.698;2023-04-25T06:08:46;14.83;;;6.30;;
12271;SDS011;6198;51.446;6.698;2023-04-25T06:11:12;20.30;;;6.60;;
12271;SDS011;6198;51.446;6.698;2023-04-25T06:13:38;16.23;;;6.40;;
12271;SDS011;6198;51.446;6.698;2023-04-25T06:16:04;16.13;;;6.03;;
12271;SDS011;6198;51.446;6.698;2023-04-25T06:18:30;12.97;;;6.43;;
12271;SDS011;6198;51.446;6.698;2023-04-25T06:20:56;13.00;;;5.80;;
12271;SDS011;6198;51.446;6.698;2023-04-25T06:23:22;14.03;;;5.43;;
12271;SDS011;6198;51.446;6.698;2023-04-25T06:25:48;17.77;;;6.40;;
12271;SDS011;6198;51.446;6.698;2023-04-25T06:28:14;18.97;;;5.03;;
12271;SDS011;6198;51.446;6.698;2023-04-25T06:30:40;20.40;;;5.40;;
12271;SDS011;6198;51.446;6.698;2023-04-25T06:33:06;12.80;;;4.97;;
12271;SDS011;6198;51.446;6.698;2023-04-25T06:35:33;14.50;;;5.40;;
12271;SDS011;6198;51.446;6.698;2023-04-25T06:37:59;15.27;;;4.73;;
12271;SDS011;6198;51.446;6.698;2023-04-25T06:40:25;18.17;;;5.57;;
12271;SDS011;6198;51.446;6.698;2023-04-25T06:42:51;19.03;;;5.40;;
12271;SDS011;6198;51.446;6.698;2023-04-25T06:45:17;15.07;;;5.30;;
12271;SDS011;6198;51.446;6.698;2023-04-25T06:47:43;17.37;;;5.50;;
12271;SDS011;6198;51.446;6.698;2023-04-25T06:50:09;15.07;;;4.90;;
12271;SDS011;6198;51.446;6.698;2023-04-25T06:52:35;13.03;;;5.10;;
12271;SDS011;6198;51.446;6.698;2023-04-25T06:55:02;15.57;;;5.67;;
12271;SDS011;6198;51.446;6.698;2023-04-25T06:57:28;18.57;;;5.70;;
12271;SDS011;6198;51.446;6.698;2023-04-25T06:59:54;20.70;;;5.87;;
12271;SDS011;6198;51.446;6.698;2023-04-25T07:02:20;18.70;;;5.87;;
12271;SDS011;6198;51.446;6.698;2023-04-25T07:04:47;13.27;;;5.83;;
12271;SDS011;6198;51.446;6.698;2023-04-25T07:07:13;15.20;;;5.53;;
12271;SDS011;6198;51.446;6.698;2023-04-25T07:09:39;17.57;;;5.43;;
12271;SDS011;6198;51.446;6.698;2023-04-25T07:12:05;13.37;;;5.53;;
12271;SDS011;6198;51.446;6.698;2023-04-25T07:14:31;14.30;;;5.03;;
12271;SDS011;6198;51.446;6.698;2023-04-25T07:16:57;18.33;;;5.20;;
12271;SDS011;6198;51.446;6.698;2023-04-25T07:19:23;18.10;;;4.73;;
12271;SDS011;6198;51.446;6.698;2023-04-25T07:21:51;14.47;;;5.03;;
12271;SDS011;6198;51.446;6.698;2023-04-25T07:24:17;19.43;;;5.30;;
12271;SDS011;6198;51.446;6.698;2023-04-25T07:26:43;10.40;;;5.37;;
12271;SDS011;6198;51.446;6.698;2023-04-25T07:29:09;13.87;;;5.50;;
12271;SDS011;6198;51.446;6.698;2023-04-25T07:31:35;12.23;;;4.77;;
12271;SDS011;6198;51.446;6.698;2023-04-25T07:34:01;14.60;;;5.30;;
12271;SDS011;6198;51.446;6.698;2023-04-25T07:36:27;14.37;;;5.23;;
12271;SDS011;6198;51.446;6.698;2023-04-25T07:38:53;19.63;;;5.37;;
12271;SDS011;6198;51.446;6.698;2023-04-25T07:41:20;14.90;;;4.77;;
12271;SDS011;6198;51.446;6.698;2023-04-25T07:43:47;18.20;;;6.03;;
12271;SDS011;6198;51.446;6.698;2023-04-25T07:46:13;14.30;;;4.97;;
12271;SDS011;6198;51.446;6.698;2023-04-25T07:48:38;14.30;;;4.50;;
12271;SDS011;6198;51.446;6.698;2023-04-25T07:51:04;17.53;;;4.60;;
12271;SDS011;6198;51.446;6.698;2023-04-25T07:53:32;13.73;;;5.00;;
12271;SDS011;6198;51.446;6.698;2023-04-25T07:55:59;16.77;;;5.07;;
12271;SDS011;6198;51.446;6.698;2023-04-25T07:58:25;8.73;;;2.97;;
12271;SDS011;6198;51.446;6.698;2023-04-25T08:00:51;10.43;;;4.37;;
12271;SDS011;6198;51.446;6.698;2023-04-25T08:03:17;12.97;;;3.73;;
12271;SDS011;6198;51.446;6.698;2023-04-25T08:05:43;14.97;;;4.80;;
12271;SDS011;6198;51.446;6.698;2023-04-25T08:08:10;14.23;;;3.80;;
12271;SDS011;6198;51.446;6.698;2023-04-25T08:10:36;9.33;;;3.70;;
12271;SDS011;6198;51.446;6.698;2023-04-25T08:13:02;11.87;;;4.13;;
12271;SDS011;6198;51.446;6.698;2023-04-25T08:15:28;8.63;;;3.40;;
12271;SDS011;6198;51.446;6.698;2023-04-25T08:17:54;10.10;;;3.83;;
12271;SDS011;6198;51.446;6.698;2023-04-25T08:20:20;11.97;;;3.70;;
12271;SDS011;6198;51.446;6.698;2023-04-25T08:22:46;15.40;;;3.90;;
12271;SDS011;6198;51.446;6.698;2023-04-25T08:25:13;11.37;;;3.63;;
12271;SDS011;6198;51.446;6.698;2023-04-25T08:27:39;15.40;;;3.77;;
12271;SDS011;6198;51.446;6.698;2023-04-25T08:30:09;12.67;;;3.33;;
12271;SDS011;6198;51.446;6.698;2023-04-25T08:32:35;10.53;;;3.57;;
12271;SDS011;6198;51.446;6.698;2023-04-25T08:35:03;8.97;;;3.00;;
12271;SDS011;6198;51.446;6.698;2023-04-25T08:37:29;14.27;;;3.73;;
12271;SDS011;6198;51.446;6.698;2023-04-25T08:39:55;8.33;;;3.13;;
12271;SDS011;6198;51.446;6.698;2023-04-25T08:42:21;10.57;;;3.20;;
12271;SDS011;6198;51.446;6.698;2023-04-25T08:44:48;13.37;;;3.43;;
12271;SDS011;6198;51.446;6.698;2023-04-25T08:47:14;11.47;;;3.60;;
12271;SDS011;6198;51.446;6.698;2023-04-25T08:49:40;12.00;;;3.60;;
12271;SDS011;6198;51.446;6.698;2023-04-25T08:52:09;15.93;;;3.47;;
12271;SDS011;6198;51.446;6.698;2023-04-25T08:54:35;14.73;;;3.80;;
12271;SDS011;6198;51.446;6.698;2023-04-25T08:57:02;10.27;;;3.47;;
12271;SDS011;6198;51.446;6.698;2023-04-25T08:59:29;12.73;;;3.37;;
12271;SDS011;6198;51.446;6.698;2023-04-25T09:01:56;11.87;;;3.07;;
12271;SDS011;6198;51.446;6.698;2023-04-25T09:04:22;5.57;;;2.47;;
12271;SDS011;6198;51.446;6.698;2023-04-25T09:06:48;7.37;;;2.27;;
12271;SDS011;6198;51.446;6.698;2023-04-25T09:09:14;10.57;;;2.80;;
12271;SDS011;6198;51.446;6.698;2023-04-25T09:11:40;8.70;;;2.50;;
12271;SDS011;6198;51.446;6.698;2023-04-25T09:14:13;9.40;;;2.73;;
12271;SDS011;6198;51.446;6.698;2023-04-25T09:19:30;7.90;;;2.93;;
12271;SDS011;6198;51.446;6.698;2023-04-25T09:21:57;8.30;;;2.60;;
12271;SDS011;6198;51.446;6.698;2023-04-25T09:24:37;9.87;;;2.80;;
12271;SDS011;6198;51.446;6.698;2023-04-25T09:27:04;7.47;;;2.80;;
12271;SDS011;6198;51.446;6.698;2023-04-25T09:29:30;11.63;;;2.83;;
12271;SDS011;6198;51.446;6.698;2023-04-25T09:34:48;6.47;;;2.60;;
12271;SDS011;6198;51.446;6.698;2023-04-25T09:37:33;6.03;;;2.60;;
12271;SDS011;6198;51.446;6.698;2023-04-25T09:40:00;8.23;;;2.50;;
12271;SDS011;6198;51.446;6.698;2023-04-25T09:42:30;10.47;;;2.93;;
12271;SDS011;6198;51.446;6.698;2023-04-25T09:44:57;6.27;;;2.50;;
12271;SDS011;6198;51.446;6.698;2023-04-25T09:47:26;7.30;;;2.53;;
12271;SDS011;6198;51.446;6.698;2023-04-25T09:49:53;8.90;;;2.57;;
12271;SDS011;6198;51.446;6.698;2023-04-25T09:52:23;9.90;;;2.47;;
12271;SDS011;6198;51.446;6.698;2023-04-25T09:54:50;9.20;;;2.60;;
12271;SDS011;6198;51.446;6.698;2023-04-25T09:57:23;5.93;;;2.23;;
12271;SDS011;6198;51.446;6.698;2023-04-25T09:59:51;4.57;;;2.27;;
12271;SDS011;6198;51.446;6.698;2023-04-25T10:02:18;7.87;;;2.40;;
12271;SDS011;6198;51.446;6.698;2023-04-25T10:04:47;8.10;;;2.50;;
12271;SDS011;6198;51.446;6.698;2023-04-25T10:07:13;10.10;;;2.23;;
12271;SDS011;6198;51.446;6.698;2023-04-25T10:09:40;3.87;;;1.97;;
12271;SDS011;6198;51.446;6.698;2023-04-25T10:12:07;7.80;;;2.27;;
12271;SDS011;6198;51.446;6.698;2023-04-25T10:14:33;5.67;;;2.13;;
12271;SDS011;6198;51.446;6.698;2023-04-25T10:17:00;4.53;;;2.20;;
12271;SDS011;6198;51.446;6.698;2023-04-25T10:19:26;6.43;;;2.13;;
12271;SDS011;6198;51.446;6.698;2023-04-25T10:22:35;6.60;;;3.00;;
12271;SDS011;6198;51.446;6.698;2023-04-25T10:24:42;6.17;;;2.53;;
12271;SDS011;6198;51.446;6.698;2023-04-25T10:27:08;9.20;;;2.73;;
12271;SDS011;6198;51.446;6.698;2023-04-25T10:29:35;5.37;;;2.13;;
12271;SDS011;6198;51.446;6.698;2023-04-25T10:32:01;8.30;;;2.50;;
12271;SDS011;6198;51.446;6.698;2023-04-25T10:34:43;7.57;;;2.47;;
12271;SDS011;6198;51.446;6.698;2023-04-25T10:37:12;4.07;;;2.57;;
12271;SDS011;6198;51.446;6.698;2023-04-25T10:39:41;5.43;;;2.30;;
12271;SDS011;6198;51.446;6.698;2023-04-25T10:42:08;3.13;;;1.87;;
12271;SDS011;6198;51.446;6.698;2023-04-25T10:44:34;6.23;;;2.27;;
12271;SDS011;6198;51.446;6.698;2023-04-25T10:47:02;5.53;;;2.50;;
12271;SDS011;6198;51.446;6.698;2023-04-25T10:49:34;8.30;;;2.07;;
12271;SDS011;6198;51.446;6.698;2023-04-25T11:00:01;6.87;;;2.67;;
12271;SDS011;6198;51.446;6.698;2023-04-25T11:02:30;4.40;;;2.17;;
12271;SDS011;6198;51.446;6.698;2023-04-25T11:04:56;4.70;;;2.00;;
12271;SDS011;6198;51.446;6.698;2023-04-25T11:10:06;8.57;;;2.70;;
12271;SDS011;6198;51.446;6.698;2023-04-25T11:12:32;5.77;;;2.27;;
12271;SDS011;6198;51.446;6.698;2023-04-25T11:14:59;3.73;;;1.93;;
12271;SDS011;6198;51.446;6.698;2023-04-25T11:17:26;6.07;;;2.20;;
12271;SDS011;6198;51.446;6.698;2023-04-25T11:19:52;7.30;;;2.30;;
12271;SDS011;6198;51.446;6.698;2023-04-25T11:22:20;6.90;;;2.20;;
12271;SDS011;6198;51.446;6.698;2023-04-25T11:24:46;7.33;;;2.87;;
12271;SDS011;6198;51.446;6.698;2023-04-25T11:27:12;6.17;;;2.63;;
12271;SDS011;6198;51.446;6.698;2023-04-25T11:29:38;6.70;;;2.93;;
12271;SDS011;6198;51.446;6.698;2023-04-25T11:32:04;7.17;;;2.83;;
12271;SDS011;6198;51.446;6.698;2023-04-25T11:34:31;6.60;;;3.00;;
12271;SDS011;6198;51.446;6.698;2023-04-25T11:36:58;4.27;;;2.20;;
12271;SDS011;6198;51.446;6.698;2023-04-25T11:39:24;7.70;;;2.60;;
12271;SDS011;6198;51.446;6.698;2023-04-25T11:41:50;8.03;;;2.53;;
12271;SDS011;6198;51.446;6.698;2023-04-25T11:44:17;9.80;;;2.67;;
12271;SDS011;6198;51.446;6.698;2023-04-25T11:46:43;9.13;;;2.60;;
12271;SDS011;6198;51.446;6.698;2023-04-25T11:49:09;7.30;;;3.10;;
12271;SDS011;6198;51.446;6.698;2023-04-25T11:51:43;6.90;;;2.53;;
12271;SDS011;6198;51.446;6.698;2023-04-25T11:54:09;8.57;;;3.17;;
12271;SDS011;6198;51.446;6.698;2023-04-25T11:56:35;8.83;;;3.03;;
12271;SDS011;6198;51.446;6.698;2023-04-25T11:59:02;9.50;;;3.10;;
12271;SDS011;6198;51.446;6.698;2023-04-25T12:01:29;8.47;;;3.33;;
12271;SDS011;6198;51.446;6.698;2023-04-25T12:03:56;7.47;;;2.87;;
12271;SDS011;6198;51.446;6.698;2023-04-25T12:06:28;9.27;;;3.67;;
12271;SDS011;6198;51.446;6.698;2023-04-25T12:11:26;7.03;;;3.17;;
12271;SDS011;6198;51.446;6.698;2023-04-25T12:13:52;6.30;;;3.03;;
12271;SDS011;6198;51.446;6.698;2023-04-25T12:16:18;14.57;;;3.93;;
12271;SDS011;6198;51.446;6.698;2023-04-25T12:18:44;8.67;;;3.40;;
12271;SDS011;6198;51.446;6.698;2023-04-25T12:21:10;6.00;;;2.90;;
12271;SDS011;6198;51.446;6.698;2023-04-25T12:23:38;7.03;;;2.93;;
12271;SDS011;6198;51.446;6.698;2023-04-25T12:26:06;7.97;;;3.10;;
12271;SDS011;6198;51.446;6.698;2023-04-25T12:28:32;5.10;;;2.57;;
12271;SDS011;6198;51.446;6.698;2023-04-25T12:33:26;7.90;;;2.67;;
12271;SDS011;6198;51.446;6.698;2023-04-25T12:35:52;6.50;;;2.83;;
12271;SDS011;6198;51.446;6.698;2023-04-25T12:38:25;7.60;;;2.70;;
12271;SDS011;6198;51.446;6.698;2023-04-25T12:40:52;7.57;;;3.00;;
12271;SDS011;6198;51.446;6.698;2023-04-25T12:43:18;8.07;;;2.20;;
12271;SDS011;6198;51.446;6.698;2023-04-25T12:45:47;7.17;;;3.47;;
12271;SDS011;6198;51.446;6.698;2023-04-25T12:48:13;8.10;;;2.50;;
12271;SDS011;6198;51.446;6.698;2023-04-25T12:50:39;7.13;;;2.60;;
12271;SDS011;6198;51.446;6.698;2023-04-25T12:53:06;6.07;;;2.27;;
12271;SDS011;6198;51.446;6.698;2023-04-25T12:55:32;8.47;;;2.67;;
12271;SDS011;6198;51.446;6.698;2023-04-25T12:57:57;7.07;;;2.10;;
12271;SDS011;6198;51.446;6.698;2023-04-25T13:00:23;7.00;;;2.60;;
12271;SDS011;6198;51.446;6.698;2023-04-25T13:02:49;5.67;;;2.47;;
12271;SDS011;6198;51.446;6.698;2023-04-25T13:05:15;9.57;;;2.80;;
12271;SDS011;6198;51.446;6.698;2023-04-25T13:07:41;7.20;;;1.97;;
12271;SDS011;6198;51.446;6.698;2023-04-25T13:10:07;7.47;;;2.00;;
12271;SDS011;6198;51.446;6.698;2023-04-25T13:12:34;6.80;;;2.13;;
12271;SDS011;6198;51.446;6.698;2023-04-25T13:15:00;5.87;;;2.30;;
12271;SDS011;6198;51.446;6.698;2023-04-25T13:17:26;8.67;;;2.30;;
12271;SDS011;6198;51.446;6.698;2023-04-25T13:19:51;5.27;;;2.10;;
12271;SDS011;6198;51.446;6.698;2023-04-25T13:22:17;7.13;;;2.20;;
12271;SDS011;6198;51.446;6.698;2023-04-25T13:24:45;9.13;;;2.53;;
12271;SDS011;6198;51.446;6.698;2023-04-25T13:27:11;5.73;;;2.53;;
12271;SDS011;6198;51.446;6.698;2023-04-25T13:29:38;6.60;;;2.30;;
12271;SDS011;6198;51.446;6.698;2023-04-25T13:32:05;6.10;;;2.70;;
12271;SDS011;6198;51.446;6.698;2023-04-25T13:34:31;4.80;;;2.10;;
12271;SDS011;6198;51.446;6.698;2023-04-25T13:36:57;9.73;;;2.90;;
12271;SDS011;6198;51.446;6.698;2023-04-25T13:39:23;9.00;;;2.30;;
12271;SDS011;6198;51.446;6.698;2023-04-25T13:41:49;8.90;;;2.80;;
12271;SDS011;6198;51.446;6.698;2023-04-25T13:44:15;6.33;;;2.40;;
12271;SDS011;6198;51.446;6.698;2023-04-25T13:46:41;3.93;;;2.07;;
12271;SDS011;6198;51.446;6.698;2023-04-25T13:49:07;4.43;;;2.50;;
12271;SDS011;6198;51.446;6.698;2023-04-25T13:51:33;6.47;;;2.43;;
12271;SDS011;6198;51.446;6.698;2023-04-25T13:53:59;3.77;;;1.97;;
12271;SDS011;6198;51.446;6.698;2023-04-25T13:56:26;6.90;;;2.00;;
12271;SDS011;6198;51.446;6.698;2023-04-25T13:58:51;4.43;;;2.40;;
12271;SDS011;6198;51.446;6.698;2023-04-25T14:01:18;6.50;;;2.27;;
12271;SDS011;6198;51.446;6.698;2023-04-25T14:03:45;8.37;;;2.80;;
12271;SDS011;6198;51.446;6.698;2023-04-25T14:06:11;6.93;;;2.70;;
12271;SDS011;6198;51.446;6.698;2023-04-25T14:08:38;4.23;;;2.13;;
12271;SDS011;6198;51.446;6.698;2023-04-25T14:11:04;6.53;;;2.20;;
12271;SDS011;6198;51.446;6.698;2023-04-25T14:13:30;5.63;;;2.27;;
12271;SDS011;6198;51.446;6.698;2023-04-25T14:15:56;4.20;;;1.73;;
12271;SDS011;6198;51.446;6.698;2023-04-25T14:18:22;3.77;;;2.13;;
12271;SDS011;6198;51.446;6.698;2023-04-25T14:20:48;4.37;;;2.00;;
12271;SDS011;6198;51.446;6.698;2023-04-25T14:23:14;8.10;;;2.23;;
12271;SDS011;6198;51.446;6.698;2023-04-25T14:25:40;4.20;;;2.43;;
12271;SDS011;6198;51.446;6.698;2023-04-25T14:28:07;3.93;;;2.20;;
12271;SDS011;6198;51.446;6.698;2023-04-25T14:30:33;5.83;;;2.13;;
12271;SDS011;6198;51.446;6.698;2023-04-25T14:32:59;5.57;;;2.23;;
12271;SDS011;6198;51.446;6.698;2023-04-25T14:35:25;7.03;;;1.90;;
12271;SDS011;6198;51.446;6.698;2023-04-25T14:37:51;11.10;;;2.80;;
12271;SDS011;6198;51.446;6.698;2023-04-25T14:40:18;7.40;;;2.30;;
12271;SDS011;6198;51.446;6.698;2023-04-25T14:42:47;7.33;;;2.10;;
12271;SDS011;6198;51.446;6.698;2023-04-25T14:45:13;6.13;;;2.40;;
12271;SDS011;6198;51.446;6.698;2023-04-25T14:47:39;6.50;;;2.50;;
12271;SDS011;6198;51.446;6.698;2023-04-25T14:50:06;3.77;;;2.07;;
12271;SDS011;6198;51.446;6.698;2023-04-25T14:52:33;6.57;;;2.20;;
12271;SDS011;6198;51.446;6.698;2023-04-25T14:54:59;5.53;;;2.07;;
12271;SDS011;6198;51.446;6.698;2023-04-25T14:57:29;4.80;;;2.30;;
12271;SDS011;6198;51.446;6.698;2023-04-25T14:59:55;6.57;;;2.73;;
12271;SDS011;6198;51.446;6.698;2023-04-25T15:02:21;4.70;;;2.40;;
12271;SDS011;6198;51.446;6.698;2023-04-25T15:04:47;5.67;;;2.50;;
12271;SDS011;6198;51.446;6.698;2023-04-25T15:07:13;6.13;;;2.60;;
12271;SDS011;6198;51.446;6.698;2023-04-25T15:09:40;5.30;;;2.93;;